Time;durP1;ratioP1;P1;durP2;ratioP2;P2;SDS_P1;SDS_P2;PMS_P1;PMS_P2;Temp;Humidity;BMP_temperature;BMP_pressure;BME280_temperature;BME280_humidity;BME280_pressure;Samples;Min_cycle;Max_cycle;Signal;HPM_P1;HPM_P2
2022/08/08 00:01:16;;;;;;;2.53;2.10;;;;;;;18.09;56.86;101628.94;5032886;28;20198;-79
2022/08/08 00:03:55;;;;;;;3.33;2.80;;;;;;;18.06;57.21;101635.19;5032768;28;20226;-80
2022/08/08 00:06:36;;;;;;;3.23;2.17;;;;;;;18.03;57.71;101624.69;5032615;28;20230;-79
2022/08/08 00:09:08;;;;;;;2.47;2.27;;;;;;;17.92;57.72;101612.72;5032977;28;20190;-82
2022/08/08 00:11:40;;;;;;;2.93;2.63;;;;;;;17.78;58.60;101594.63;5032516;28;20210;-81
2022/08/08 00:14:15;;;;;;;3.40;2.80;;;;;;;17.82;58.41;101585.72;5032213;28;20203;-80
2022/08/08 00:16:49;;;;;;;2.93;2.67;;;;;;;17.68;58.86;101572.94;5032059;28;20205;-82
2022/08/08 00:19:20;;;;;;;3.20;2.60;;;;;;;17.67;59.02;101579.13;5033150;28;20260;-81
2022/08/08 00:21:49;;;;;;;2.80;2.60;;;;;;;17.66;59.50;101570.34;5032103;28;20261;-81
2022/08/08 00:24:20;;;;;;;3.60;2.93;;;;;;;17.69;58.90;101581.72;5032417;28;20264;-82
2022/08/08 00:26:52;;;;;;;2.83;2.63;;;;;;;17.56;59.30;101571.53;5032651;28;20209;-81
2022/08/08 00:29:24;;;;;;;2.87;2.67;;;;;;;17.55;59.47;101567.16;5033366;28;20226;-82
2022/08/08 00:31:58;;;;;;;2.73;2.53;;;;;;;17.53;59.72;101554.91;5032922;28;20233;-82
2022/08/08 00:37:31;;;;;;;3.13;2.90;;;;;;;17.41;60.68;101513.91;5033282;28;20267;-82
2022/08/08 00:40:28;;;;;;;3.27;2.97;;;;;;;17.36;61.27;101492.06;5033057;28;20218;-80
2022/08/08 00:43:20;;;;;;;3.00;2.70;;;;;;;17.40;61.01;101496.34;5024148;28;20218;-82
2022/08/08 00:46:00;;;;;;;2.83;2.63;;;;;;;17.37;59.46;101522.84;5033248;28;20211;-82
2022/08/08 00:49:14;;;;;;;3.00;2.70;;;;;;;17.32;59.64;101538.78;5033345;28;20206;-82
2022/08/08 00:52:09;;;;;;;3.73;2.73;;;;;;;17.35;60.17;101530.78;4986389;28;20203;-81
2022/08/08 00:54:58;;;;;;;3.20;3.00;;;;;;;17.34;59.10;101563.38;5032684;28;20202;-82
2022/08/08 00:58:11;;;;;;;3.03;2.50;;;;;;;17.37;59.25;101589.69;5032379;28;20202;-81
2022/08/08 01:00:46;;;;;;;2.97;2.67;;;;;;;17.42;59.80;101548.19;5032821;28;20214;-81
2022/08/08 01:03:49;;;;;;;3.17;2.97;;;;;;;17.38;59.58;101558.88;5032988;28;20234;-80
2022/08/08 01:07:04;;;;;;;3.20;3.00;;;;;;;17.37;58.92;101583.53;5032928;28;20214;-80
2022/08/08 01:10:01;;;;;;;3.63;2.77;;;;;;;17.35;59.61;101574.81;4972948;28;20242;-80
2022/08/08 01:13:04;;;;;;;2.93;2.40;;;;;;;17.34;58.69;101595.03;5030071;28;20227;-82
2022/08/08 01:16:07;;;;;;;3.03;2.83;;;;;;;17.30;59.11;101585.47;5033331;28;20210;-81
2022/08/08 01:19:23;;;;;;;2.63;2.43;;;;;;;17.18;58.71;101594.59;5034381;28;20210;-82
2022/08/08 01:22:13;;;;;;;3.00;2.80;;;;;;;17.14;59.67;101585.03;5033850;28;20230;-80
2022/08/08 01:24:59;;;;;;;2.93;2.73;;;;;;;17.13;59.22;101585.97;5029300;28;20280;-80
2022/08/08 01:28:01;;;;;;;3.27;2.97;;;;;;;16.68;60.90;101588.91;5029104;28;20213;-79
2022/08/08 01:31:04;;;;;;;3.83;3.10;;;;;;;16.51;61.20;101539.25;5029729;28;20270;-80
2022/08/08 01:33:57;;;;;;;3.20;3.00;;;;;;;16.43;62.09;101507.84;5029493;28;20374;-81
2022/08/08 01:37:12;;;;;;;2.87;2.67;;;;;;;16.63;62.45;101486.22;5028873;28;20221;-82
2022/08/08 01:40:04;;;;;;;3.40;3.17;;;;;;;16.71;61.64;101488.63;4968544;29;20250;-80
2022/08/08 01:42:40;;;;;;;3.30;3.00;;;;;;;16.72;62.34;101510.59;5025684;28;20261;-79
2022/08/08 01:45:35;;;;;;;3.67;3.13;;;;;;;16.73;61.90;101512.31;5029242;28;20253;-80
2022/08/08 01:48:09;;;;;;;3.73;3.27;;;;;;;16.67;62.51;101508.94;5029415;28;20230;-78
2022/08/08 01:50:53;;;;;;;3.77;3.20;;;;;;;16.70;64.15;101463.16;5029336;28;20206;-79
2022/08/08 01:53:38;;;;;;;3.47;3.10;;;;;;;16.70;63.12;101452.63;5029491;28;20229;-80
2022/08/08 01:56:17;;;;;;;5.13;3.17;;;;;;;16.58;62.96;101474.06;5029202;28;20240;-81
2022/08/08 01:58:55;;;;;;;3.23;3.03;;;;;;;16.59;62.59;101471.38;5029668;28;20209;-80
2022/08/08 02:01:29;;;;;;;3.30;3.10;;;;;;;16.31;63.32;101478.28;5029103;28;20272;-81
2022/08/08 02:04:09;;;;;;;3.60;3.30;;;;;;;16.32;63.51;101464.22;5029934;28;20231;-80
2022/08/08 02:06:54;;;;;;;3.90;3.60;;;;;;;16.21;64.11;101452.19;5029065;28;20272;-79
2022/08/08 02:09:31;;;;;;;4.13;3.73;;;;;;;16.19;65.30;101427.63;5029824;28;20225;-79
2022/08/08 02:12:00;;;;;;;3.60;3.30;;;;;;;16.12;64.69;101420.81;5028639;28;20238;-79
2022/08/08 02:14:34;;;;;;;4.17;3.67;;;;;;;16.09;65.14;101405.09;5028808;28;20233;-81
2022/08/08 02:17:11;;;;;;;3.80;3.50;;;;;;;16.20;64.37;101426.75;5028403;28;20213;-79
2022/08/08 02:19:45;;;;;;;4.03;3.73;;;;;;;16.27;65.52;101430.06;5029627;28;20210;-81
2022/08/08 02:22:30;;;;;;;4.30;3.73;;;;;;;16.25;66.04;101422.22;5029347;28;20230;-80
2022/08/08 02:25:06;;;;;;;3.60;3.37;;;;;;;16.27;64.71;101416.91;5028428;28;20261;-82
2022/08/08 02:27:41;;;;;;;6.53;3.40;;;;;;;16.21;65.05;101431.13;5028552;28;20214;-78
2022/08/08 02:30:12;;;;;;;4.10;3.80;;;;;;;16.26;67.38;101387.06;5028090;28;20207;-81
2022/08/08 02:33:24;;;;;;;3.77;3.57;;;;;;;16.29;66.86;101343.94;5029079;28;20234;-79
2022/08/08 02:36:00;;;;;;;4.20;3.80;;;;;;;16.24;66.03;101391.50;5029580;28;20289;-81
2022/08/08 02:38:53;;;;;;;4.20;3.90;;;;;;;16.24;66.32;101388.88;5029876;28;20217;-81
2022/08/08 02:41:50;;;;;;;3.93;3.63;;;;;;;16.27;66.54;101395.81;5029459;28;20231;-82
2022/08/08 02:44:53;;;;;;;4.13;3.73;;;;;;;16.30;66.05;101401.00;5025420;28;20895;-81
2022/08/08 02:47:54;;;;;;;4.17;3.87;;;;;;;16.27;65.79;101424.78;5029422;28;20194;-78
2022/08/08 02:50:42;;;;;;;4.87;4.17;;;;;;;16.14;65.27;101449.75;5030073;28;20211;-80
2022/08/08 02:53:27;;;;;;;3.93;3.63;;;;;;;16.05;66.88;101427.13;5029591;28;20326;-81
2022/08/08 02:56:47;;;;;;;3.93;3.63;;;;;;;16.05;65.92;101435.03;5029441;28;20210;-80
2022/08/08 02:59:47;;;;;;;4.77;4.23;;;;;;;16.00;66.01;101422.00;5029630;28;20234;-81
2022/08/08 03:02:55;;;;;;;4.40;4.03;;;;;;;15.79;66.46;101443.59;5029276;28;20229;-81
2022/08/08 03:05:55;;;;;;;4.50;4.10;;;;;;;15.82;68.08;101409.31;5020302;28;20226;-80
2022/08/08 03:09:03;;;;;;;4.80;4.40;;;;;;;15.64;66.79;101418.50;5031523;28;20214;-82
2022/08/08 03:12:04;;;;;;;4.50;4.10;;;;;;;15.61;67.46;101403.63;5033789;28;20217;-81
2022/08/08 03:14:56;;;;;;;4.27;3.87;;;;;;;15.66;68.24;101391.22;5034529;28;20198;-80
2022/08/08 03:17:29;;;;;;;4.30;3.90;;;;;;;15.66;67.76;101385.09;5031364;28;20214;-82
2022/08/08 03:20:12;;;;;;;5.40;4.90;;;;;;;15.74;68.12;101388.44;5034277;28;20198;-81
2022/08/08 03:22:45;;;;;;;5.20;4.73;;;;;;;15.76;69.48;101355.03;5035120;28;20221;-81
2022/08/08 03:25:14;;;;;;;4.60;4.30;;;;;;;15.82;70.20;101330.31;5034069;28;20233;-80
2022/08/08 03:27:45;;;;;;;4.20;3.80;;;;;;;15.78;69.33;101342.69;5033731;28;20207;-80
2022/08/08 03:30:14;;;;;;;4.20;4.00;;;;;;;15.72;69.53;101340.19;5035149;28;20207;-81
2022/08/08 03:35:26;;;;;;;4.87;4.57;;;;;;;15.66;68.43;101390.38;5034153;28;20208;-82
2022/08/08 03:37:54;;;;;;;4.43;4.13;;;;;;;15.66;68.80;101385.97;5033865;28;20211;-82
2022/08/08 03:40:23;;;;;;;5.00;4.60;;;;;;;15.67;68.75;101385.03;5034377;28;20226;-81
2022/08/08 03:42:49;;;;;;;5.03;4.63;;;;;;;15.57;68.24;101398.47;5025440;28;20295;-80
2022/08/08 03:45:19;;;;;;;7.97;5.00;;;;;;;15.54;68.97;101402.06;5033475;28;20249;-81
2022/08/08 03:47:55;;;;;;;4.70;4.30;;;;;;;15.48;68.53;101403.06;5035145;28;20214;-82
2022/08/08 03:50:21;;;;;;;4.40;4.10;;;;;;;15.36;69.12;101405.09;5034398;28;20225;-81
2022/08/08 03:52:48;;;;;;;5.00;4.60;;;;;;;15.22;69.93;101380.00;5034653;28;20234;-80
2022/08/08 03:55:18;;;;;;;4.10;3.77;;;;;;;15.22;70.02;101365.97;5033948;28;20287;-80
2022/08/08 03:57:46;;;;;;;4.80;4.40;;;;;;;15.34;69.45;101364.81;5034336;28;20205;-80
2022/08/08 04:00:14;;;;;;;4.20;3.90;;;;;;;15.36;70.31;101363.91;5034117;28;20720;-81
2022/08/08 04:02:41;;;;;;;5.20;4.70;;;;;;;15.43;70.48;101360.19;5034911;28;20230;-80
2022/08/08 04:05:08;;;;;;;5.27;4.67;;;;;;;15.46;69.73;101378.56;5035132;28;20261;-80
2022/08/08 04:07:38;;;;;;;4.77;4.37;;;;;;;15.44;69.92;101397.88;5035551;28;20684;-79
2022/08/08 04:10:06;;;;;;;4.80;4.50;;;;;;;15.26;70.56;101384.28;5035346;28;20221;-80
2022/08/08 04:12:34;;;;;;;5.57;4.97;;;;;;;15.27;70.02;101393.91;5034537;28;20276;-80
2022/08/08 04:15:01;;;;;;;6.10;4.87;;;;;;;15.34;70.85;101392.00;5033832;28;20207;-81
2022/08/08 04:17:28;;;;;;;4.60;4.30;;;;;;;15.32;70.74;101358.72;5032215;28;20210;-81
2022/08/08 04:19:55;;;;;;;5.80;4.80;;;;;;;15.31;71.15;101352.59;5032706;28;20264;-80
2022/08/08 04:22:21;;;;;;;5.27;4.77;;;;;;;15.38;72.46;101340.16;5032210;28;20268;-81
2022/08/08 04:24:48;;;;;;;5.47;5.00;;;;;;;15.42;71.77;101326.03;5032352;28;20240;-80
2022/08/08 04:27:14;;;;;;;5.00;4.50;;;;;;;15.49;71.17;101346.88;5032312;28;20226;-81
2022/08/08 04:29:42;;;;;;;5.33;4.90;;;;;;;15.58;72.41;101352.81;5032326;28;20210;-79
2022/08/08 04:32:13;;;;;;;5.20;4.73;;;;;;;15.65;71.08;101347.38;5033269;28;20229;-80
2022/08/08 04:34:39;;;;;;;4.57;4.20;;;;;;;15.73;72.38;101360.38;5033125;28;20214;-78
2022/08/08 04:37:06;;;;;;;5.23;4.73;;;;;;;15.74;71.87;101351.59;5032668;28;20235;-79
2022/08/08 04:39:32;;;;;;;5.30;4.93;;;;;;;15.79;72.75;101359.34;5032987;28;20214;-81
2022/08/08 04:41:59;;;;;;;5.03;4.53;;;;;;;15.75;70.81;101390.16;5032590;28;20261;-81
2022/08/08 04:44:26;;;;;;;6.43;5.37;;;;;;;15.72;70.19;101416.53;5032545;28;20222;-80
2022/08/08 04:46:54;;;;;;;5.03;4.63;;;;;;;15.70;69.93;101449.94;5033074;28;20215;-81
2022/08/08 04:49:20;;;;;;;5.07;4.70;;;;;;;15.59;71.05;101442.28;5033307;28;20700;-80
2022/08/08 04:51:46;;;;;;;5.53;5.07;;;;;;;15.67;72.11;101390.31;5032776;28;20256;-80
2022/08/08 04:54:13;;;;;;;5.17;4.83;;;;;;;15.45;70.27;101432.06;5033265;28;20245;-80
2022/08/08 04:56:39;;;;;;;5.33;4.93;;;;;;;14.75;71.43;101429.22;5034397;28;20260;-80
2022/08/08 04:59:06;;;;;;;6.27;5.77;;;;;;;14.64;72.27;101387.38;5031408;28;20210;-80
2022/08/08 05:01:32;;;;;;;5.93;5.47;;;;;;;14.32;72.77;101381.88;5031632;28;20692;-78
2022/08/08 05:04:00;;;;;;;5.77;5.37;;;;;;;14.19;73.20;101355.88;5031336;28;20232;-78
2022/08/08 05:06:26;;;;;;;6.20;5.37;;;;;;;14.13;74.08;101337.56;5031394;28;20261;-78
2022/08/08 05:08:53;;;;;;;5.40;5.03;;;;;;;14.25;74.70;101320.72;5031341;28;20236;-81
2022/08/08 05:11:20;;;;;;;5.63;5.23;;;;;;;14.08;74.71;101321.91;5030947;28;20549;-82
2022/08/08 05:13:46;;;;;;;5.90;5.50;;;;;;;13.95;75.05;101311.69;5031101;28;20225;-79
2022/08/08 05:16:13;;;;;;;6.47;5.93;;;;;;;13.78;75.59;101304.16;5030778;28;20236;-80
2022/08/08 05:18:39;;;;;;;6.50;6.00;;;;;;;13.77;75.89;101290.13;5031211;28;20625;-79
2022/08/08 05:21:08;;;;;;;6.17;5.67;;;;;;;13.85;75.86;101269.00;5031127;28;20210;-78
2022/08/08 05:23:34;;;;;;;5.80;5.30;;;;;;;13.90;76.34;101272.41;5030890;28;20731;-80
2022/08/08 05:26:01;;;;;;;5.90;5.40;;;;;;;14.05;75.18;101279.09;5030481;28;20230;-81
2022/08/08 05:28:28;;;;;;;6.63;6.13;;;;;;;13.84;75.21;101304.03;5030292;28;20238;-81
2022/08/08 05:30:55;;;;;;;5.67;5.27;;;;;;;13.93;75.08;101306.47;5030146;28;20241;-81
2022/08/08 05:33:21;;;;;;;5.37;4.97;;;;;;;14.17;75.66;101291.13;5030223;28;20244;-81
2022/08/08 05:35:49;;;;;;;6.20;5.70;;;;;;;14.12;74.72;101327.13;5030129;28;20268;-81
2022/08/08 05:38:18;;;;;;;5.80;5.40;;;;;;;14.14;75.10;101331.44;5030341;28;20624;-80
2022/08/08 05:40:47;;;;;;;6.57;5.97;;;;;;;14.10;75.20;101327.16;5030469;28;20214;-80
2022/08/08 05:43:21;;;;;;;5.47;5.07;;;;;;;14.24;75.00;101330.38;5029458;28;20229;-81
2022/08/08 05:45:48;;;;;;;9.17;6.50;;;;;;;14.28;74.47;101347.78;5029739;28;20229;-81
2022/08/08 05:48:15;;;;;;;6.17;5.77;;;;;;;14.36;74.44;101352.03;5030094;28;20276;-82
2022/08/08 05:50:42;;;;;;;6.57;6.03;;;;;;;14.41;74.13;101361.56;5030311;28;20702;-80
2022/08/08 05:53:08;;;;;;;6.17;5.67;;;;;;;14.55;73.85;101363.91;5029318;28;20237;-82
2022/08/08 05:55:39;;;;;;;6.80;6.03;;;;;;;14.58;73.68;101384.03;5028376;28;20205;-80
2022/08/08 05:58:07;;;;;;;7.00;6.50;;;;;;;14.72;73.33;101394.25;5029921;28;20201;-78
2022/08/08 06:00:35;;;;;;;6.67;6.17;;;;;;;14.61;72.57;101431.28;5029566;28;20572;-78
2022/08/08 06:03:11;;;;;;;6.10;5.60;;;;;;;14.80;72.94;101435.25;5027247;28;20253;-82
2022/08/08 06:05:43;;;;;;;6.47;5.97;;;;;;;14.84;72.46;101444.78;5028960;28;20232;-80
2022/08/08 06:08:13;;;;;;;5.93;5.30;;;;;;;14.96;73.06;101430.53;5029584;28;20209;-82
2022/08/08 06:10:42;;;;;;;6.37;5.87;;;;;;;15.09;72.25;101446.91;5029573;28;20650;-81
2022/08/08 06:13:09;;;;;;;6.13;5.73;;;;;;;15.16;71.96;101461.66;5028569;28;20221;-80
2022/08/08 06:15:36;;;;;;;6.40;5.93;;;;;;;15.31;71.47;101472.75;5029226;28;20598;-81
2022/08/08 06:18:04;;;;;;;6.30;5.90;;;;;;;15.39;70.88;101498.00;5029085;28;20210;-83
2022/08/08 06:20:31;;;;;;;7.20;6.50;;;;;;;15.35;70.89;101506.84;5027294;28;20199;-79
2022/08/08 06:22:57;;;;;;;6.90;6.20;;;;;;;15.22;71.82;101493.13;5028914;28;20259;-81
2022/08/08 06:25:24;;;;;;;7.43;6.87;;;;;;;15.28;71.82;101478.94;5025776;28;20234;-81
2022/08/08 06:27:55;;;;;;;6.60;6.10;;;;;;;15.38;71.80;101471.72;5019527;28;20220;-80
2022/08/08 06:30:21;;;;;;;6.57;5.97;;;;;;;15.39;72.35;101478.72;5028521;28;20209;-82
2022/08/08 06:32:51;;;;;;;6.83;6.33;;;;;;;15.41;71.57;101480.41;5028983;28;20225;-82
2022/08/08 06:35:19;;;;;;;6.43;5.93;;;;;;;15.35;72.55;101477.91;5027671;28;20199;-82
2022/08/08 06:37:48;;;;;;;5.87;5.37;;;;;;;15.37;72.72;101462.09;5031513;28;20225;-82
2022/08/08 06:40:15;;;;;;;6.63;6.13;;;;;;;15.40;72.21;101476.06;5030381;28;20211;-83
2022/08/08 06:42:50;;;;;;;6.87;6.17;;;;;;;15.49;72.05;101475.81;5034038;28;20228;-82
2022/08/08 06:45:19;;;;;;;7.17;6.57;;;;;;;15.61;71.43;101494.88;5032520;28;20464;-82
2022/08/08 06:47:46;;;;;;;6.57;6.10;;;;;;;15.58;71.56;101508.09;5035139;28;20240;-80
2022/08/08 06:50:12;;;;;;;7.40;6.70;;;;;;;15.66;71.67;101498.28;5035284;28;20194;-82
2022/08/08 06:52:39;;;;;;;7.20;6.50;;;;;;;15.70;72.22;101492.03;5035846;28;20217;-80
2022/08/08 06:55:07;;;;;;;6.90;6.40;;;;;;;15.73;71.33;101513.06;5034396;28;20210;-81
2022/08/08 06:57:33;;;;;;;6.63;6.13;;;;;;;15.81;71.20;101526.03;5036586;28;20225;-78
2022/08/08 07:00:00;;;;;;;6.73;6.13;;;;;;;15.84;71.15;101532.09;5036604;28;20527;-81
2022/08/08 07:02:32;;;;;;;6.30;5.80;;;;;;;15.97;70.72;101534.44;5037010;28;20226;-80
2022/08/08 07:05:03;;;;;;;6.87;6.27;;;;;;;15.89;69.88;101553.91;5034108;28;20203;-81
2022/08/08 07:07:37;;;;;;;6.67;6.10;;;;;;;15.99;71.25;101546.66;5033897;28;20214;-80
2022/08/08 07:10:06;;;;;;;6.93;6.23;;;;;;;16.06;71.73;101531.59;5034519;28;20210;-81
2022/08/08 07:12:39;;;;;;;6.30;5.80;;;;;;;16.07;71.32;101551.75;5034055;28;20244;-80
2022/08/08 07:15:08;;;;;;;6.40;5.67;;;;;;;16.25;70.44;101556.59;5032345;28;20216;-81
2022/08/08 07:17:42;;;;;;;6.50;5.70;;;;;;;16.33;69.75;101592.41;5030404;28;20659;-80
2022/08/08 07:20:10;;;;;;;6.60;6.00;;;;;;;16.44;70.31;101569.31;5033324;28;20216;-81
2022/08/08 07:22:43;;;;;;;6.30;5.40;;;;;;;16.59;70.07;101579.47;5034092;28;20226;-81
2022/08/08 07:25:10;;;;;;;6.27;5.77;;;;;;;16.55;68.32;101622.63;5033357;28;20226;-81
2022/08/08 07:27:41;;;;;;;8.73;5.83;;;;;;;16.55;69.04;101627.00;5030501;28;20206;-82
2022/08/08 07:30:08;;;;;;;6.33;5.83;;;;;;;16.65;69.86;101612.72;5030681;28;20270;-82
2022/08/08 07:32:38;;;;;;;6.03;5.40;;;;;;;16.84;68.89;101607.84;5029575;28;20230;-80
2022/08/08 07:35:05;;;;;;;5.37;4.97;;;;;;;16.98;68.88;101624.16;5031663;28;20207;-82
2022/08/08 07:37:34;;;;;;;5.87;5.27;;;;;;;17.11;67.10;101666.09;5031684;28;20221;-80
2022/08/08 07:40:01;;;;;;;5.77;5.27;;;;;;;17.21;66.25;101715.91;5032381;28;20237;-81
2022/08/08 07:42:29;;;;;;;5.33;4.80;;;;;;;17.36;65.20;101742.81;5030689;28;20222;-80
2022/08/08 07:44:55;;;;;;;5.30;4.90;;;;;;;17.42;63.79;101803.34;5028277;28;20227;-81
2022/08/08 07:47:22;;;;;;;5.50;5.00;;;;;;;17.51;63.63;101831.31;5031058;28;20222;-79
2022/08/08 07:49:49;;;;;;;5.73;5.33;;;;;;;17.60;64.19;101824.03;5031814;28;20216;-80
2022/08/08 07:52:17;;;;;;;5.77;5.37;;;;;;;17.61;65.54;101793.19;5027953;28;20250;-81
2022/08/08 07:54:51;;;;;;;5.33;4.93;;;;;;;17.77;63.51;101806.84;5031693;28;20209;-80
2022/08/08 07:57:27;;;;;;;7.90;4.67;;;;;;;17.90;62.98;101836.47;5029113;28;20199;-81
2022/08/08 08:00:04;;;;;;;5.00;4.60;;;;;;;18.03;62.22;101873.06;5031220;28;20202;-81
2022/08/08 08:02:38;;;;;;;5.13;4.73;;;;;;;18.11;62.34;101872.00;5031569;28;20214;-82
2022/08/08 08:05:12;;;;;;;4.47;4.07;;;;;;;18.17;60.98;101919.41;5031620;28;20235;-83
2022/08/08 08:07:41;;;;;;;4.70;4.30;;;;;;;18.22;60.44;101950.09;5032770;28;20199;-81
2022/08/08 08:10:09;;;;;;;4.80;4.40;;;;;;;18.30;59.73;101964.91;5032016;28;20229;-80
2022/08/08 08:12:37;;;;;;;4.73;4.20;;;;;;;18.37;59.68;101975.25;5028168;28;20261;-79
2022/08/08 08:15:06;;;;;;;5.03;4.63;;;;;;;18.43;59.55;101979.50;5027839;28;20232;-80
2022/08/08 08:17:38;;;;;;;4.90;4.50;;;;;;;18.52;59.94;101986.34;5030497;28;20199;-80
2022/08/08 08:20:08;;;;;;;4.37;3.97;;;;;;;18.53;57.87;102022.44;5030796;28;20257;-80
2022/08/08 08:22:35;;;;;;;4.03;3.67;;;;;;;18.60;57.84;102042.53;5029677;28;20218;-80
2022/08/08 08:25:02;;;;;;;4.00;3.70;;;;;;;18.70;56.42;102083.69;5029679;28;20374;-81
2022/08/08 08:27:28;;;;;;;3.97;3.67;;;;;;;18.81;57.59;102073.75;5029731;28;20219;-81
2022/08/08 08:29:55;;;;;;;4.40;4.10;;;;;;;18.84;57.60;102062.19;5026649;28;20226;-82
2022/08/08 08:32:21;;;;;;;4.93;4.33;;;;;;;18.91;58.33;102039.97;5030681;28;20218;-80
2022/08/08 08:34:48;;;;;;;6.33;4.83;;;;;;;18.98;58.47;102006.25;5031426;28;20203;-81
2022/08/08 08:37:16;;;;;;;4.70;4.30;;;;;;;19.02;59.03;102007.88;5029275;28;20195;-81
2022/08/08 08:39:43;;;;;;;5.10;4.70;;;;;;;19.12;58.56;101996.09;5031324;28;20206;-81
2022/08/08 08:42:10;;;;;;;4.47;4.07;;;;;;;19.14;58.02;102012.81;5028642;28;20226;-80
2022/08/08 08:44:38;;;;;;;4.00;3.60;;;;;;;19.19;55.34;102057.69;5024952;28;20195;-80
2022/08/08 08:47:04;;;;;;;3.90;3.60;;;;;;;19.15;55.17;102115.16;5025222;28;20222;-81
2022/08/08 08:49:31;;;;;;;3.60;3.30;;;;;;;19.16;55.26;102132.75;5031259;28;20214;-80
2022/08/08 08:52:02;;;;;;;4.10;3.70;;;;;;;19.35;56.07;102106.63;5032188;28;20241;-81
2022/08/08 08:54:34;;;;;;;4.03;3.63;;;;;;;19.48;55.00;102101.84;5031515;28;20231;-83
2022/08/08 08:57:03;;;;;;;3.83;3.50;;;;;;;19.51;54.09;102156.53;5031356;28;20207;-81
2022/08/08 08:59:35;;;;;;;4.07;3.77;;;;;;;19.61;54.56;102161.50;5031369;28;20207;-81
2022/08/08 09:02:02;;;;;;;3.23;3.00;;;;;;;19.64;55.61;102134.03;5032258;28;20227;-80
2022/08/08 09:04:34;;;;;;;4.10;3.50;;;;;;;19.70;57.80;102067.63;5031999;28;20207;-82
2022/08/08 09:07:02;;;;;;;3.43;3.13;;;;;;;19.78;55.94;102062.09;5032340;28;20249;-81
2022/08/08 09:09:34;;;;;;;3.63;3.40;;;;;;;19.77;53.89;102106.28;5032722;28;20207;-80
2022/08/08 09:12:01;;;;;;;3.67;3.27;;;;;;;19.87;54.99;102122.78;5026340;28;20260;-80
2022/08/08 09:14:29;;;;;;;3.87;3.50;;;;;;;19.97;53.73;102150.72;5032224;28;20204;-81
2022/08/08 09:16:55;;;;;;;3.67;3.40;;;;;;;20.05;53.53;102137.25;5032532;28;20298;-83
2022/08/08 09:19:22;;;;;;;3.40;3.20;;;;;;;20.16;53.25;102150.19;5031984;28;20211;-83
2022/08/08 09:21:51;;;;;;;4.53;3.13;;;;;;;20.22;53.04;102150.84;5029255;28;20250;-80
2022/08/08 09:24:17;;;;;;;3.10;2.83;;;;;;;20.25;51.21;102208.22;5029546;28;20236;-80
2022/08/08 09:26:55;;;;;;;3.63;3.33;;;;;;;20.33;51.67;102242.44;5029684;28;20230;-80
2022/08/08 09:29:23;;;;;;;3.47;3.17;;;;;;;20.35;51.99;102222.06;5029502;28;20286;-81
2022/08/08 09:31:54;;;;;;;4.40;3.90;;;;;;;20.46;53.43;102204.03;5029824;28;20230;-81
2022/08/08 09:34:24;;;;;;;4.87;3.40;;;;;;;20.58;51.65;102200.97;5029340;28;20241;-80
2022/08/08 09:36:59;;;;;;;3.47;3.17;;;;;;;20.68;51.93;102216.63;5029048;28;20746;-82
2022/08/08 09:39:29;;;;;;;2.63;2.40;;;;;;;20.76;49.61;102280.94;5029426;28;20202;-80
2022/08/08 09:42:02;;;;;;;3.83;2.50;;;;;;;20.83;49.52;102298.38;5029006;28;20281;-83
2022/08/08 09:44:44;;;;;;;2.70;2.37;;;;;;;20.86;48.62;102330.16;5029413;28;20191;-81
2022/08/08 09:47:14;;;;;;;2.90;2.70;;;;;;;20.89;49.27;102337.13;5029199;28;20265;-80
2022/08/08 09:49:41;;;;;;;3.93;3.23;;;;;;;20.90;48.07;102346.84;5030129;28;20202;-80
2022/08/08 09:52:08;;;;;;;4.20;2.97;;;;;;;21.00;49.36;102329.72;5029802;28;20223;-78
2022/08/08 09:54:40;;;;;;;2.70;2.20;;;;;;;21.17;49.54;102306.13;5029280;28;20285;-81
2022/08/08 09:57:09;;;;;;;2.60;2.27;;;;;;;21.20;47.42;102334.38;5030406;28;20687;-83
2022/08/08 09:59:39;;;;;;;3.10;2.43;;;;;;;21.18;47.60;102370.72;5028913;28;20233;-80
2022/08/08 10:02:12;;;;;;;3.90;2.37;;;;;;;21.29;48.27;102355.31;5030373;28;20222;-81
2022/08/08 10:04:39;;;;;;;3.30;3.00;;;;;;;21.37;49.11;102332.00;5030101;28;20206;-78
2022/08/08 10:07:06;;;;;;;3.50;3.20;;;;;;;21.54;47.56;102298.69;5029538;28;20226;-81
2022/08/08 10:09:34;;;;;;;3.07;2.77;;;;;;;21.66;47.85;102343.44;5030479;28;20199;-80
2022/08/08 10:12:01;;;;;;;2.30;1.97;;;;;;;21.74;47.31;102335.19;5024230;28;20230;-81
2022/08/08 10:14:33;;;;;;;2.63;2.43;;;;;;;21.78;47.20;102348.34;5031190;28;20199;-81
2022/08/08 10:16:59;;;;;;;2.93;2.17;;;;;;;21.77;45.97;102397.13;5030337;28;20233;-82
2022/08/08 10:19:35;;;;;;;3.60;2.80;;;;;;;21.72;44.55;102441.59;5030724;28;20237;-81
2022/08/08 10:22:02;;;;;;;2.13;2.03;;;;;;;21.79;46.19;102435.16;5029924;28;20226;-81
2022/08/08 10:24:30;;;;;;;2.50;2.30;;;;;;;21.91;46.36;102409.94;5031702;28;20207;-82
2022/08/08 10:26:59;;;;;;;2.47;2.30;;;;;;;21.92;45.73;102432.06;5031780;28;20230;-82
2022/08/08 10:29:39;;;;;;;2.20;2.07;;;;;;;22.05;45.81;102424.53;5031629;28;20195;-81
2022/08/08 10:34:57;;;;;;;2.10;2.00;;;;;;;22.28;43.72;102429.94;5029589;28;20282;-82
2022/08/08 10:37:26;;;;;;;2.80;2.50;;;;;;;22.41;43.38;102488.88;5027941;28;20293;-80
2022/08/08 10:39:54;;;;;;;2.40;2.20;;;;;;;22.41;42.13;102553.63;5027520;28;20245;-81
2022/08/08 10:42:23;;;;;;;2.10;1.90;;;;;;;22.49;42.80;102539.19;5025085;28;20280;-82
2022/08/08 10:45:00;;;;;;;2.77;2.20;;;;;;;22.55;42.45;102539.81;5024346;28;20617;-81
2022/08/08 10:47:26;;;;;;;2.97;2.10;;;;;;;22.58;42.10;102533.53;4328862;28;10000773;-79
2022/08/08 10:49:54;;;;;;;2.37;2.17;;;;;;;22.55;42.34;102530.97;5018957;28;20213;-80
2022/08/08 10:52:26;;;;;;;2.00;1.87;;;;;;;22.59;40.93;102543.25;5018896;28;20242;-79
2022/08/08 10:54:53;;;;;;;2.33;1.80;;;;;;;22.55;41.79;102577.09;5019910;28;20203;-80
2022/08/08 10:57:20;;;;;;;2.23;2.03;;;;;;;22.67;42.21;102524.34;5021079;28;20306;-80
2022/08/08 10:59:52;;;;;;;2.00;1.67;;;;;;;22.70;41.54;102549.06;5022611;28;20211;-79
2022/08/08 11:02:24;;;;;;;2.07;1.90;;;;;;;22.74;41.61;102536.50;5022252;28;20250;-80
2022/08/08 11:04:50;;;;;;;2.40;2.20;;;;;;;22.91;41.59;102512.78;5021974;28;20219;-80
2022/08/08 11:07:25;;;;;;;3.53;2.63;;;;;;;23.03;41.23;102546.09;5020801;28;20227;-80
2022/08/08 11:09:51;;;;;;;1.90;1.77;;;;;;;22.86;39.28;102599.97;5022360;28;20214;-80
2022/08/08 11:12:18;;;;;;;3.67;2.00;;;;;;;23.07;40.82;102592.13;5022244;28;20231;-80
2022/08/08 11:14:55;;;;;;;2.30;2.00;;;;;;;23.34;41.13;102555.59;5021662;28;20203;-80
2022/08/08 11:17:24;;;;;;;1.77;1.67;;;;;;;23.45;40.35;102561.38;5022825;28;20206;-81
2022/08/08 11:19:52;;;;;;;7.87;2.13;;;;;;;23.53;39.69;102580.59;5020916;28;20734;-80
2022/08/08 11:22:24;;;;;;;3.23;1.87;;;;;;;23.73;39.83;102590.47;5020854;28;20231;-80
2022/08/08 11:24:53;;;;;;;2.13;1.83;;;;;;;23.75;38.52;102609.94;5018041;28;20671;-80
2022/08/08 11:27:23;;;;;;;1.83;1.73;;;;;;;23.87;39.93;102629.09;5023131;28;20289;-81
2022/08/08 11:29:55;;;;;;;2.23;1.97;;;;;;;24.09;39.97;102591.75;5025176;28;20208;-82
2022/08/08 11:32:24;;;;;;;1.90;1.80;;;;;;;24.27;39.13;102598.97;5027088;28;20237;-81
2022/08/08 11:34:55;;;;;;;2.43;1.67;;;;;;;24.42;37.37;102617.94;5026373;28;20206;-79
2022/08/08 11:37:22;;;;;;;2.57;1.90;;;;;;;24.85;38.23;102619.63;5026750;28;20214;-79
2022/08/08 11:39:50;;;;;;;2.20;2.00;;;;;;;25.80;36.99;102646.47;5028136;28;20225;-80
2022/08/08 11:42:17;;;;;;;2.03;1.80;;;;;;;27.58;35.20;102691.94;5029839;28;20277;-81
2022/08/08 11:44:45;;;;;;;2.00;1.90;;;;;;;29.59;32.01;102824.53;5028896;28;20191;-81
2022/08/08 11:47:13;;;;;;;1.83;1.73;;;;;;;31.44;30.06;102891.63;5028303;28;20334;-78
2022/08/08 11:49:41;;;;;;;2.13;1.93;;;;;;;32.49;27.43;102986.97;5029140;28;20229;-79
2022/08/08 11:52:08;;;;;;;3.47;2.30;;;;;;;32.79;25.61;103030.78;5028964;28;20227;-79
2022/08/08 11:54:35;;;;;;;2.23;2.00;;;;;;;33.22;25.12;103086.31;5027937;28;20203;-81
2022/08/08 11:57:09;;;;;;;1.90;1.70;;;;;;;34.45;24.12;103051.69;5023538;28;20697;-81
2022/08/08 11:59:37;;;;;;;1.90;1.80;;;;;;;35.60;23.59;103055.81;5023435;28;20296;-80
2022/08/08 12:02:05;;;;;;;2.10;2.00;;;;;;;36.55;22.23;103065.78;5024293;28;20717;-78